createdAt,value
2018-04-10T00:02:03.105Z,95000.45
2018-04-10T00:04:29.113Z,95010.52
2018-04-10T00:06:55.136Z,95010.31
2018-04-10T00:09:21.083Z,95007.55
2018-04-10T00:11:47.095Z,95011.86
2018-04-10T00:14:13.053Z,95009.51
2018-04-10T00:16:39.076Z,95013.08
2018-04-10T00:19:05.026Z,95010.89
2018-04-10T00:21:31.030Z,95005.37
2018-04-10T00:23:57.039Z,95005.54
2018-04-10T00:26:22.983Z,95006.75
2018-04-10T00:28:48.968Z,95008.30
2018-04-10T00:31:14.984Z,95014.02
2018-04-10T00:33:40.931Z,95009.48
2018-04-10T00:36:06.944Z,95003.16
2018-04-10T00:38:32.966Z,94996.66
2018-04-10T00:40:58.941Z,94995.85
2018-04-10T00:43:24.890Z,94998.03
2018-04-10T00:45:50.877Z,94996.66
2018-04-10T00:48:16.858Z,94999.02
2018-04-10T00:50:42.837Z,94997.43
2018-04-10T00:53:08.813Z,95003.35
2018-04-10T00:55:34.820Z,95005.30
2018-04-10T00:58:00.828Z,95011.23
2018-04-10T01:00:26.807Z,95012.00
2018-04-10T01:02:52.798Z,95013.01
2018-04-10T01:05:18.814Z,95007.66
2018-04-10T01:07:44.788Z,94999.78
2018-04-10T01:10:10.777Z,95002.34
2018-04-10T01:12:36.760Z,94999.78
2018-04-10T01:15:02.771Z,94997.59
2018-04-10T01:17:28.723Z,94996.62
2018-04-10T01:19:54.748Z,94993.06
2018-04-10T01:22:20.758Z,94988.92
2018-04-10T01:24:46.768Z,94990.70
2018-04-10T01:27:12.717Z,94980.07
2018-04-10T01:29:38.697Z,94979.09
2018-04-10T01:32:04.677Z,94981.45
2018-04-10T01:34:30.665Z,94981.62
2018-04-10T01:36:56.680Z,94982.02
2018-04-10T01:39:22.627Z,94978.86
2018-04-10T01:41:48.611Z,94975.12
2018-04-10T01:44:14.588Z,94973.14
2018-04-10T01:46:40.619Z,94969.20
2018-04-10T01:49:06.626Z,94964.87
2018-04-10T01:51:32.579Z,94965.27
2018-04-10T01:53:58.588Z,94963.09
2018-04-10T01:56:24.562Z,94966.65
2018-04-10T01:58:50.546Z,94972.34
2018-04-10T02:01:16.559Z,94973.55
2018-04-10T02:03:42.506Z,94974.92
2018-04-10T02:06:08.493Z,94973.55
2018-04-10T02:08:34.477Z,94965.44
2018-04-10T02:11:00.486Z,94972.34
2018-04-10T02:13:26.433Z,94970.78
2018-04-10T02:15:52.409Z,94970.18
2018-04-10T02:18:18.403Z,94978.25
2018-04-10T02:20:44.415Z,94976.07
2018-04-10T02:23:10.400Z,94982.97
2018-04-10T02:25:36.397Z,94970.76
2018-04-10T02:28:02.383Z,94974.89
2018-04-10T02:30:28.376Z,94971.94
2018-04-10T02:32:54.359Z,94979.44
2018-04-10T02:35:20.365Z,94977.66
2018-04-10T02:37:46.356Z,94981.22
2018-04-10T02:40:12.349Z,94978.05
2018-04-10T02:42:38.352Z,94973.11
2018-04-10T02:45:04.333Z,94974.89
2018-04-10T02:47:30.344Z,94972.70
2018-04-10T02:49:56.320Z,94975.06
2018-04-10T02:52:22.313Z,94977.82
2018-04-10T02:54:48.327Z,94981.19
2018-04-10T02:57:14.340Z,94981.76
2018-04-10T02:59:40.300Z,94977.25
2018-04-10T03:02:06.275Z,94981.56
2018-04-10T03:04:32.256Z,94986.70
2018-04-10T03:06:58.270Z,94984.92
2018-04-10T03:09:24.228Z,94991.22
2018-04-10T03:11:50.235Z,94988.45
2018-04-10T03:14:16.216Z,94982.73
2018-04-10T03:16:42.208Z,94979.58
2018-04-10T03:19:08.184Z,94983.14
2018-04-10T03:21:34.184Z,94986.06
2018-04-10T03:24:00.211Z,94976.81
2018-04-10T03:26:26.191Z,94975.44
2018-04-10T03:28:52.198Z,94969.52
2018-04-10T03:31:18.160Z,94972.27
2018-04-10T03:33:44.133Z,94974.45
2018-04-10T03:36:10.116Z,94986.06
2018-04-10T03:38:36.143Z,94977.79
2018-04-10T03:41:02.154Z,94981.93
2018-04-10T03:43:28.136Z,94978.97
2018-04-10T03:45:54.108Z,94981.52
2018-04-10T03:48:20.130Z,94980.75
2018-04-10T03:50:46.113Z,94987.84
2018-04-10T03:53:12.092Z,94987.45
2018-04-10T03:55:38.135Z,94991.18
2018-04-10T03:58:04.152Z,94987.24
2018-04-10T04:00:30.101Z,94993.56
2018-04-10T04:02:56.083Z,94993.16
2018-04-10T04:05:22.068Z,94994.34
2018-04-10T04:07:48.043Z,94991.62
2018-04-10T04:10:14.126Z,95002.69
2018-04-10T04:12:40.143Z,95008.44
2018-04-10T04:15:06.088Z,95005.47
2018-04-10T04:17:32.066Z,95004.91
2018-04-10T04:19:58.057Z,95007.86
2018-04-10T04:22:24.153Z,95010.28
2018-04-10T04:24:50.106Z,95010.28
2018-04-10T04:27:16.084Z,95018.33
2018-04-10T04:29:42.072Z,95017.14
2018-04-10T04:32:08.066Z,95013.58
2018-04-10T04:34:34.047Z,95011.43
2018-04-10T04:37:00.040Z,95015.42
2018-04-10T04:39:26.030Z,95013.27
2018-04-10T04:41:52.009Z,95003.22
2018-04-10T04:44:18.041Z,95012.91
2018-04-10T04:46:44.014Z,95017.30
2018-04-10T04:49:09.968Z,95020.78
2018-04-10T04:51:35.960Z,95032.63
2018-04-10T04:54:01.961Z,95025.58
2018-04-10T04:56:27.948Z,95024.98
2018-04-10T04:58:53.931Z,95024.00
2018-04-10T05:01:19.917Z,95025.95
2018-04-10T05:03:45.915Z,95034.23
2018-04-10T05:06:11.940Z,95025.02
2018-04-10T05:08:39.105Z,95031.17
2018-04-10T05:11:03.890Z,95034.30
2018-04-10T05:13:29.884Z,95037.84
2018-04-10T05:15:55.926Z,95043.75
2018-04-10T05:18:21.899Z,95036.69
2018-04-10T05:20:47.918Z,95044.97
2018-04-10T05:23:13.919Z,95050.48
2018-04-10T05:25:39.906Z,95040.19
2018-04-10T05:28:05.908Z,95047.89
2018-04-10T05:30:31.936Z,95037.84
2018-04-10T05:32:57.911Z,95038.44
2018-04-10T05:35:23.896Z,95041.77
2018-04-10T05:37:49.905Z,95047.49
2018-04-10T05:40:15.891Z,95044.33
2018-04-10T05:42:41.870Z,95047.29
2018-04-10T05:45:07.892Z,95046.89
2018-04-10T05:47:33.886Z,95032.08
2018-04-10T05:49:59.867Z,95038.00
2018-04-10T05:52:25.900Z,95033.86
2018-04-10T05:54:51.880Z,95035.61
2018-04-10T05:57:17.898Z,95039.02
2018-04-10T05:59:43.875Z,95042.34
2018-04-10T06:02:09.931Z,95045.10
2018-04-10T06:04:35.881Z,95041.53
2018-04-10T06:07:01.867Z,95041.37
2018-04-10T06:09:27.853Z,95038.61
2018-04-10T06:11:53.864Z,95038.61
2018-04-10T06:14:19.888Z,95039.98
2018-04-10T06:16:45.837Z,95036.42
2018-04-10T06:19:11.827Z,95032.22
2018-04-10T06:21:37.816Z,95033.59
2018-04-10T06:24:03.895Z,95027.10
2018-04-10T06:26:29.882Z,95033.20
2018-04-10T06:28:55.824Z,95031.04
2018-04-10T06:31:21.857Z,95030.03
2018-04-10T06:33:47.868Z,95033.20
2018-04-10T06:36:13.818Z,95023.10
2018-04-10T06:38:39.819Z,95026.67
2018-04-10T06:41:05.824Z,95027.07
2018-04-10T06:43:31.819Z,95023.10
2018-04-10T06:45:57.875Z,95020.17
2018-04-10T06:48:23.872Z,95014.25
2018-04-10T06:50:49.889Z,95009.95
2018-04-10T06:53:15.887Z,95008.97
2018-04-10T06:55:41.831Z,94999.68
2018-04-10T06:58:07.826Z,94998.30
2018-04-10T07:00:33.820Z,94996.55
2018-04-10T07:02:59.832Z,95003.25
2018-04-10T07:05:25.817Z,95002.27
2018-04-10T07:07:51.833Z,95000.08
2018-04-10T07:10:17.786Z,95005.60
2018-04-10T07:12:43.769Z,95006.20
2018-04-10T07:15:09.767Z,94999.48
2018-04-10T07:17:35.831Z,94997.12
2018-04-10T07:20:01.819Z,94993.56
2018-04-10T07:22:27.871Z,94996.12
2018-04-10T07:24:53.823Z,94991.00
2018-04-10T07:27:19.815Z,94992.75
2018-04-10T07:29:45.825Z,94987.23
2018-04-10T07:32:11.828Z,94986.26
2018-04-10T07:34:37.819Z,94990.59
2018-04-10T07:37:03.803Z,94989.62
2018-04-10T07:39:29.787Z,94986.06
2018-04-10T07:41:55.858Z,94985.08
2018-04-10T07:44:21.882Z,94983.70
2018-04-10T07:46:47.863Z,94983.90
2018-04-10T07:49:13.860Z,94990.39
2018-04-10T07:51:39.845Z,94982.32
2018-04-10T07:54:05.823Z,94977.58
2018-04-10T07:56:31.830Z,94978.38
2018-04-10T07:58:57.821Z,94972.46
2018-04-10T08:01:23.802Z,94978.38
2018-04-10T08:03:49.786Z,94984.88
2018-04-10T08:06:15.796Z,94989.25
2018-04-10T08:08:41.780Z,94979.36
2018-04-10T08:11:07.778Z,94970.68
2018-04-10T08:13:33.790Z,94965.56
2018-04-10T08:15:59.799Z,94964.59
2018-04-10T08:18:25.770Z,94965.77
2018-04-10T08:20:51.756Z,94964.79
2018-04-10T08:23:17.793Z,94958.47
2018-04-10T08:25:43.773Z,94963.01
2018-04-10T08:28:09.769Z,94957.89
2018-04-10T08:30:35.754Z,94947.23
2018-04-10T08:33:01.735Z,94950.59
2018-04-10T08:35:27.791Z,94945.08
2018-04-10T08:37:53.821Z,94944.30
2018-04-10T08:40:19.786Z,94930.91
2018-04-10T08:42:45.775Z,94933.09
2018-04-10T08:45:11.767Z,94934.47
2018-04-10T08:47:37.807Z,94932.89
2018-04-10T08:50:03.756Z,94935.25
2018-04-10T08:52:29.795Z,94929.93
2018-04-10T08:54:55.738Z,94920.47
2018-04-10T08:57:21.726Z,94924.07
2018-04-10T08:59:47.717Z,94927.63
2018-04-10T09:02:13.718Z,94925.85
2018-04-10T09:04:39.680Z,94920.88
2018-04-10T09:07:05.669Z,94917.31
2018-04-10T09:09:31.650Z,94919.93
2018-04-10T09:11:57.636Z,94919.67
2018-04-10T09:14:23.620Z,94916.33
2018-04-10T09:16:49.746Z,94911.80
2018-04-10T09:19:15.740Z,94916.59
2018-04-10T09:21:41.819Z,94918.34
2018-04-10T09:24:07.817Z,94917.37
2018-04-10T09:26:33.844Z,94906.53
2018-04-10T09:28:59.861Z,94907.72
2018-04-10T09:31:25.841Z,94907.14
2018-04-10T09:33:51.820Z,94901.63
2018-04-10T09:36:17.852Z,94893.75
2018-04-10T09:38:43.784Z,94892.38
2018-04-10T09:41:09.859Z,94894.55
2018-04-10T09:43:35.837Z,94894.16
2018-04-10T09:46:01.785Z,94894.34
2018-04-10T09:48:27.765Z,94894.34
2018-04-10T09:50:53.756Z,94891.22
2018-04-10T09:53:19.737Z,94878.43
2018-04-10T09:55:45.752Z,94885.70
2018-04-10T09:58:11.763Z,94882.73
2018-04-10T10:00:37.733Z,94880.38
2018-04-10T10:03:03.713Z,94872.91
2018-04-10T10:05:29.756Z,94867.59
2018-04-10T10:07:55.813Z,94866.78
2018-04-10T10:10:21.789Z,94866.78
2018-04-10T10:12:47.782Z,94862.07
2018-04-10T10:15:13.834Z,94860.12
2018-04-10T10:17:39.817Z,94857.94
2018-04-10T10:20:05.872Z,94853.99
2018-04-10T10:22:31.851Z,94848.68
2018-04-10T10:24:57.853Z,94848.48
2018-04-10T10:27:23.847Z,94839.85
2018-04-10T10:29:49.869Z,94834.91
2018-04-10T10:32:15.885Z,94826.43
2018-04-10T10:34:41.840Z,94821.71
2018-04-10T10:37:07.836Z,94817.80
2018-04-10T10:39:33.827Z,94820.56
2018-04-10T10:41:59.821Z,94818.00
2018-04-10T10:44:25.867Z,94818.00
2018-04-10T10:46:51.892Z,94818.60
2018-04-10T10:49:17.907Z,94818.23
2018-04-10T10:51:43.894Z,94815.09
2018-04-10T10:54:09.921Z,94809.95
2018-04-10T10:56:35.873Z,94817.08
2018-04-10T10:59:01.883Z,94817.67
2018-04-10T11:01:27.864Z,94821.84
2018-04-10T11:03:53.879Z,94814.20
2018-04-10T11:06:19.901Z,94816.95
2018-04-10T11:08:45.878Z,94815.17
2018-04-10T11:11:11.854Z,94815.97
2018-04-10T11:13:38.005Z,94808.50
2018-04-10T11:16:03.992Z,94806.54
2018-04-10T11:18:31.757Z,94804.98
2018-04-10T11:20:57.697Z,94804.03
2018-04-10T11:23:23.675Z,94795.34
2018-04-10T11:25:49.666Z,94796.55
2018-04-10T11:28:15.690Z,94789.08
2018-04-10T11:30:41.678Z,94788.70
2018-04-10T11:33:07.701Z,94784.73
2018-04-10T11:35:33.665Z,94780.81
2018-04-10T11:37:59.645Z,94771.94
2018-04-10T11:40:25.642Z,94778.66
2018-04-10T11:42:51.616Z,94767.05
2018-04-10T11:45:17.646Z,94764.70
2018-04-10T11:47:43.593Z,94760.94
2018-04-10T11:50:09.660Z,94758.41
2018-04-10T11:52:35.646Z,94755.47
2018-04-10T11:55:01.656Z,94742.64
2018-04-10T11:57:27.604Z,94730.04
2018-04-10T11:59:53.617Z,94726.30
2018-04-10T12:02:19.576Z,94733.03
2018-04-10T12:04:45.566Z,94732.42
2018-04-10T12:07:11.610Z,94719.82
2018-04-10T12:09:37.598Z,94709.20
2018-04-10T12:12:03.583Z,94707.42
2018-04-10T12:14:29.595Z,94699.35
2018-04-10T12:16:55.547Z,94698.98
2018-04-10T12:19:21.561Z,94687.13
2018-04-10T12:21:47.547Z,94681.21
2018-04-10T12:24:13.501Z,94683.55
2018-04-10T12:26:39.548Z,94673.53
2018-04-10T12:29:05.563Z,94679.25
2018-04-10T12:31:31.549Z,94670.78
2018-04-10T12:33:57.540Z,94668.65
2018-04-10T12:36:23.555Z,94661.16
2018-04-10T12:38:49.606Z,94657.42
2018-04-10T12:41:15.582Z,94654.84
2018-04-10T12:43:41.564Z,94661.12
2018-04-10T12:46:07.538Z,94660.89
2018-04-10T12:48:33.530Z,94652.80
2018-04-10T12:50:59.522Z,94655.39
2018-04-10T12:53:25.507Z,94653.22
2018-04-10T12:55:51.493Z,94649.06
2018-04-10T12:58:17.508Z,94661.16
2018-04-10T13:00:43.493Z,94662.36
2018-04-10T13:03:09.493Z,94659.22
2018-04-10T13:05:35.510Z,94650.55
2018-04-10T13:08:01.516Z,94660.46
2018-04-10T13:10:27.526Z,94661.06
2018-04-10T13:12:53.502Z,94648.83
2018-04-10T13:15:19.493Z,94644.70
2018-04-10T13:17:45.489Z,94647.84
2018-04-10T13:20:11.497Z,94643.69
2018-04-10T13:22:37.472Z,94659.30
2018-04-10T13:25:03.450Z,94663.24
2018-04-10T13:27:29.465Z,94658.27
2018-04-10T13:29:55.471Z,94648.84
2018-04-10T13:32:21.446Z,94650.23
2018-04-10T13:34:47.471Z,94646.06
2018-04-10T13:37:13.418Z,94647.63
2018-04-10T13:39:39.404Z,94646.05
2018-04-10T13:42:05.420Z,94641.55
2018-04-10T13:44:31.407Z,94646.29
2018-04-10T13:46:57.381Z,94640.77
2018-04-10T13:49:23.399Z,94639.59
2018-04-10T13:51:49.348Z,94639.41
2018-04-10T13:54:15.387Z,94629.14
2018-04-10T13:56:41.328Z,94635.05
2018-04-10T13:59:07.345Z,94635.28
2018-04-10T14:01:33.371Z,94623.84
2018-04-10T14:03:59.316Z,94628.41
2018-04-10T14:06:25.344Z,94629.82
2018-04-10T14:08:51.346Z,94625.27
2018-04-10T14:11:17.357Z,94623.88
2018-04-10T14:13:43.322Z,94621.72
2018-04-10T14:16:09.309Z,94614.79
2018-04-10T14:18:35.286Z,94617.19
2018-04-10T14:21:01.307Z,94616.36
2018-04-10T14:23:27.319Z,94617.77
2018-04-10T14:25:53.283Z,94612.98
2018-04-10T14:28:19.267Z,94607.08
2018-04-10T14:30:45.313Z,94614.38
2018-04-10T14:33:11.295Z,94613.25
2018-04-10T14:35:37.572Z,94617.36
2018-04-10T14:38:03.554Z,94610.88
2018-04-10T14:40:29.555Z,94612.99
2018-04-10T14:42:55.565Z,94605.90
2018-04-10T14:45:21.593Z,94602.72
2018-04-10T14:47:47.551Z,94604.32
2018-04-10T14:50:13.575Z,94608.05
2018-04-10T14:52:39.547Z,94608.22
2018-04-10T14:55:05.569Z,94609.01
2018-04-10T14:57:31.518Z,94606.25
2018-04-10T14:59:57.529Z,94603.87
2018-04-10T15:02:23.480Z,94600.13
2018-04-10T15:04:49.503Z,94593.39
2018-04-10T15:07:15.474Z,94593.97
2018-04-10T15:09:41.452Z,94600.09
2018-04-10T15:12:07.440Z,94598.73
2018-04-10T15:14:33.419Z,94597.72
2018-04-10T15:16:59.439Z,94595.95
2018-04-10T15:19:25.458Z,94589.83
2018-04-10T15:21:51.439Z,94585.91
2018-04-10T15:24:17.470Z,94592.38
2018-04-10T15:26:43.496Z,94586.03
2018-04-10T15:29:09.468Z,94588.19
2018-04-10T15:31:35.437Z,94585.02
2018-04-10T15:34:01.416Z,94586.38
2018-04-10T15:36:27.406Z,94584.41
2018-04-10T15:38:53.388Z,94588.33
2018-04-10T15:41:19.413Z,94587.91
2018-04-10T15:43:45.394Z,94587.50
2018-04-10T15:46:11.380Z,94596.57
2018-04-10T15:48:37.397Z,94589.08
2018-04-10T15:51:03.373Z,94589.08
2018-04-10T15:53:29.330Z,94588.27
2018-04-10T15:55:55.328Z,94582.56
2018-04-10T15:58:21.322Z,94580.95
2018-04-10T16:00:47.326Z,94578.80
2018-04-10T16:03:13.311Z,94575.02
2018-04-10T16:05:39.322Z,94579.13
2018-04-10T16:08:05.305Z,94578.73
2018-04-10T16:10:31.280Z,94574.99
2018-04-10T16:12:57.232Z,94576.98
2018-04-10T16:15:23.264Z,94575.38
2018-04-10T16:17:49.252Z,94572.83
2018-04-10T16:20:15.237Z,94575.77
2018-04-10T16:22:41.246Z,94581.69
2018-04-10T16:25:07.238Z,94581.09
2018-04-10T16:27:33.244Z,94584.42
2018-04-10T16:29:59.175Z,94589.55
2018-04-10T16:32:25.183Z,94592.11
2018-04-10T16:34:51.148Z,94604.16
2018-04-10T16:37:17.124Z,94606.13
2018-04-10T16:39:43.143Z,94606.55
2018-04-10T16:42:09.089Z,94618.77
2018-04-10T16:44:35.087Z,94619.94
2018-04-10T16:47:01.161Z,94628.80
2018-04-10T16:49:27.258Z,94624.08
2018-04-10T16:51:53.281Z,94625.06
2018-04-10T16:54:19.276Z,94625.06
2018-04-10T16:56:45.266Z,94623.50
2018-04-10T16:59:12.552Z,94624.10
2018-04-10T17:01:38.567Z,94626.06
2018-04-10T17:04:05.199Z,94626.45
2018-04-10T17:06:31.201Z,94629.45
2018-04-10T17:08:57.361Z,94632.58
2018-04-10T17:11:26.886Z,94628.84
2018-04-10T17:13:52.931Z,94634.36
2018-04-10T17:16:18.860Z,94624.92
2018-04-10T17:18:44.876Z,94625.09
2018-04-10T17:21:11.184Z,94624.34
2018-04-10T17:23:37.200Z,94622.76
2018-04-10T17:26:03.973Z,94636.38
2018-04-10T17:28:29.990Z,94632.24
2018-04-10T17:30:56.021Z,94633.78
2018-04-10T17:33:21.998Z,94640.48
2018-04-10T17:35:48.044Z,94643.84
2018-04-10T17:38:14.229Z,94648.58
2018-04-10T17:40:40.578Z,94649.77
2018-04-10T17:43:06.769Z,94655.86
2018-04-10T17:45:32.781Z,94650.57
2018-04-10T17:47:59.091Z,94652.13
2018-04-10T17:50:25.082Z,94662.38
2018-04-10T17:52:51.081Z,94662.99
2018-04-10T17:55:17.111Z,94662.36
2018-04-10T17:57:43.483Z,94665.13
2018-04-10T18:00:09.488Z,94681.28
2018-04-10T18:02:35.679Z,94682.47
2018-04-10T18:05:01.655Z,94690.95
2018-04-10T18:07:27.668Z,94691.58
2018-04-10T18:09:53.652Z,94696.12
2018-04-10T18:12:19.654Z,94695.34
2018-04-10T18:14:45.641Z,94694.76
2018-04-10T18:17:11.624Z,94698.69
2018-04-10T18:19:37.616Z,94701.86
2018-04-10T18:22:04.020Z,94708.18
2018-04-10T18:24:30.612Z,94716.08
2018-04-10T18:27:03.809Z,94712.77
2018-04-10T18:29:31.303Z,94707.02
2018-04-10T18:31:57.840Z,94704.06
2018-04-10T18:34:25.300Z,94714.50
2018-04-10T18:36:53.742Z,94708.80
2018-04-10T18:39:20.259Z,94705.64
2018-04-10T18:41:51.582Z,94703.08
2018-04-10T18:44:21.792Z,94702.48
2018-04-10T18:46:48.389Z,94708.20
2018-04-10T18:49:15.127Z,94713.09
2018-04-10T18:51:41.663Z,94716.86
2018-04-10T18:54:08.545Z,94717.64
2018-04-10T18:56:34.511Z,94724.75
2018-04-10T18:59:00.590Z,94735.79
2018-04-10T19:01:26.680Z,94739.32
2018-04-10T19:03:52.733Z,94734.81
2018-04-10T19:06:18.776Z,94736.77
2018-04-10T19:08:44.824Z,94738.74
2018-04-10T19:11:11.202Z,94739.55
2018-04-10T19:13:40.393Z,94743.31
2018-04-10T19:16:06.522Z,94749.81
2018-04-10T19:18:32.540Z,94749.03
2018-04-10T19:20:58.577Z,94744.52
2018-04-10T19:23:24.627Z,94740.95
2018-04-10T19:25:51.091Z,94758.89
2018-04-10T19:28:17.120Z,94757.69
2018-04-10T19:30:43.200Z,94756.91
2018-04-10T19:33:09.195Z,94756.11
2018-04-10T19:35:35.182Z,94753.53
2018-04-10T19:38:01.171Z,94763.19
2018-04-10T19:40:27.146Z,94763.80
2018-04-10T19:42:53.141Z,94760.23
2018-04-10T19:45:19.161Z,94762.19
2018-04-10T19:47:45.137Z,94754.48
2018-04-10T19:50:11.120Z,94758.63
2018-04-10T19:52:37.236Z,94763.56
2018-04-10T19:55:03.280Z,94759.02
2018-04-10T19:57:29.294Z,94758.63
2018-04-10T19:59:55.284Z,94760.23
2018-04-10T20:02:21.297Z,94759.42
2018-04-10T20:04:47.301Z,94766.16
2018-04-10T20:07:13.243Z,94769.49
2018-04-10T20:09:39.232Z,94774.21
2018-04-10T20:12:05.259Z,94775.02
2018-04-10T20:14:31.290Z,94778.16
2018-04-10T20:16:57.233Z,94784.48
2018-04-10T20:19:23.218Z,94788.63
2018-04-10T20:21:49.211Z,94779.94
2018-04-10T20:24:15.190Z,94776.57
2018-04-10T20:26:41.181Z,94779.53
2018-04-10T20:29:07.167Z,94778.35
2018-04-10T20:31:33.161Z,94776.20
2018-04-10T20:33:59.148Z,94778.17
2018-04-10T20:36:25.132Z,94768.28
2018-04-10T20:38:51.111Z,94765.92
2018-04-10T20:41:17.097Z,94760.81
2018-04-10T20:43:43.103Z,94760.20
2018-04-10T20:46:09.059Z,94765.13
2018-04-10T20:48:35.043Z,94774.02
2018-04-10T20:51:01.060Z,94778.16
2018-04-10T20:53:27.006Z,94776.57
2018-04-10T20:55:52.986Z,94772.05
2018-04-10T20:58:18.996Z,94767.52
2018-04-10T21:00:45.009Z,94767.31
2018-04-10T21:03:10.990Z,94762.16
2018-04-10T21:05:36.938Z,94754.66
2018-04-10T21:08:02.949Z,94749.72
2018-04-10T21:10:28.897Z,94744.17
2018-04-10T21:12:54.877Z,94748.49
2018-04-10T21:15:20.861Z,94734.50
2018-04-10T21:17:46.880Z,94730.93
2018-04-10T21:20:12.891Z,94734.87
2018-04-10T21:22:38.836Z,94734.47
2018-04-10T21:25:04.821Z,94738.78
2018-04-10T21:27:30.828Z,94739.39
2018-04-10T21:29:56.778Z,94743.30
2018-04-10T21:32:22.761Z,94739.97
2018-04-10T21:34:48.772Z,94739.77
2018-04-10T21:37:14.731Z,94746.06
2018-04-10T21:39:40.712Z,94741.33
2018-04-10T21:42:06.699Z,94748.20
2018-04-10T21:44:32.768Z,94760.82
2018-04-10T21:46:58.747Z,94767.92
2018-04-10T21:49:24.769Z,94762.98
2018-04-10T21:51:50.745Z,94758.24
2018-04-10T21:54:16.729Z,94757.84
2018-04-10T21:56:42.726Z,94761.41
2018-04-10T21:59:08.715Z,94762.16
2018-04-10T22:01:34.724Z,94764.91
2018-04-10T22:04:00.671Z,94773.97
2018-04-10T22:06:26.684Z,94774.95
2018-04-10T22:08:52.637Z,94780.06
2018-04-10T22:11:18.621Z,94781.45
2018-04-10T22:13:44.627Z,94786.59
2018-04-10T22:16:10.575Z,94779.87
2018-04-10T22:18:36.714Z,94779.47
2018-04-10T22:21:02.696Z,94780.45
2018-04-10T22:23:28.671Z,94772.37
2018-04-10T22:25:54.657Z,94771.36
2018-04-10T22:28:20.679Z,94763.29
2018-04-10T22:30:46.654Z,94761.91
2018-04-10T22:33:12.635Z,94762.08
2018-04-10T22:35:38.610Z,94757.94
2018-04-10T22:38:04.598Z,94761.68
2018-04-10T22:40:30.575Z,94765.63
2018-04-10T22:42:56.587Z,94763.06
2018-04-10T22:45:22.563Z,94757.54
2018-04-10T22:47:48.515Z,94752.40
2018-04-10T22:50:14.531Z,94750.84
2018-04-10T22:52:40.533Z,94747.28
2018-04-10T22:55:06.528Z,94741.36
2018-04-10T22:57:32.515Z,94738.20
2018-04-10T22:59:58.496Z,94737.22
2018-04-10T23:02:24.545Z,94733.69
2018-04-10T23:04:50.537Z,94738.20
2018-04-10T23:07:16.554Z,94739.20
2018-04-10T23:09:42.606Z,94739.38
2018-04-10T23:12:08.590Z,94736.22
2018-04-10T23:14:34.536Z,94738.98
2018-04-10T23:17:00.561Z,94732.66
2018-04-10T23:19:26.507Z,94729.90
2018-04-10T23:21:52.502Z,94737.80
2018-04-10T23:24:18.479Z,94739.36
2018-04-10T23:26:44.491Z,94736.59
2018-04-10T23:29:10.474Z,94739.36
2018-04-10T23:31:36.452Z,94738.95
2018-04-10T23:34:02.472Z,94736.20
2018-04-10T23:36:28.460Z,94736.77
2018-04-10T23:38:54.440Z,94734.22
2018-04-10T23:41:20.454Z,94732.27
2018-04-10T23:43:46.432Z,94726.11
2018-04-10T23:46:12.441Z,94720.02
2018-04-10T23:48:38.392Z,94717.26
2018-04-10T23:51:04.448Z,94721.39
2018-04-10T23:53:30.390Z,94718.64
2018-04-10T23:55:56.433Z,94720.19
2018-04-10T23:58:22.380Z,94721.00
